sensor_id;sensor_type;location;lat;lon;timestamp;temperature;humidity
44047;DHT22;29713;-33.888;151.150;2022-11-11T00:01:29;25.60;99.90
44047;DHT22;29713;-33.888;151.150;2022-11-11T00:03:56;25.60;99.90
44047;DHT22;29713;-33.888;151.150;2022-11-11T00:06:23;25.50;99.90
44047;DHT22;29713;-33.888;151.150;2022-11-11T00:08:51;25.50;99.90
44047;DHT22;29713;-33.888;151.150;2022-11-11T00:11:18;25.60;99.90
44047;DHT22;29713;-33.888;151.150;2022-11-11T00:13:45;25.60;99.90
44047;DHT22;29713;-33.888;151.150;2022-11-11T00:16:18;25.80;99.90
44047;DHT22;29713;-33.888;151.150;2022-11-11T00:18:46;25.90;99.90
44047;DHT22;29713;-33.888;151.150;2022-11-11T00:21:31;26.10;99.90
44047;DHT22;29713;-33.888;151.150;2022-11-11T00:24:29;26.30;99.90
44047;DHT22;29713;-33.888;151.150;2022-11-11T00:27:14;26.50;99.90
44047;DHT22;29713;-33.888;151.150;2022-11-11T00:29:45;26.60;99.90
44047;DHT22;29713;-33.888;151.150;2022-11-11T00:32:13;26.70;99.90
44047;DHT22;29713;-33.888;151.150;2022-11-11T00:34:50;26.90;99.90
44047;DHT22;29713;-33.888;151.150;2022-11-11T00:37:36;26.80;99.90
44047;DHT22;29713;-33.888;151.150;2022-11-11T00:40:04;26.60;99.90
44047;DHT22;29713;-33.888;151.150;2022-11-11T00:42:32;26.60;99.90
44047;DHT22;29713;-33.888;151.150;2022-11-11T00:44:59;26.60;99.90
44047;DHT22;29713;-33.888;151.150;2022-11-11T00:47:27;26.40;99.90
44047;DHT22;29713;-33.888;151.150;2022-11-11T00:50:13;26.20;99.90
44047;DHT22;29713;-33.888;151.150;2022-11-11T00:52:59;26.20;99.90
44047;DHT22;29713;-33.888;151.150;2022-11-11T00:55:27;26.30;99.90
44047;DHT22;29713;-33.888;151.150;2022-11-11T00:57:54;26.30;99.90
44047;DHT22;29713;-33.888;151.150;2022-11-11T01:00:21;26.40;99.90
44047;DHT22;29713;-33.888;151.150;2022-11-11T01:02:49;26.40;99.90
44047;DHT22;29713;-33.888;151.150;2022-11-11T01:05:16;26.70;99.90
44047;DHT22;29713;-33.888;151.150;2022-11-11T01:07:43;27.10;99.90
44047;DHT22;29713;-33.888;151.150;2022-11-11T01:10:11;27.50;99.90
44047;DHT22;29713;-33.888;151.150;2022-11-11T01:12:38;27.80;99.90
44047;DHT22;29713;-33.888;151.150;2022-11-11T01:15:06;27.80;99.90
44047;DHT22;29713;-33.888;151.150;2022-11-11T01:17:33;27.70;99.90
44047;DHT22;29713;-33.888;151.150;2022-11-11T01:20:01;27.60;99.90
44047;DHT22;29713;-33.888;151.150;2022-11-11T01:22:28;27.40;99.90
44047;DHT22;29713;-33.888;151.150;2022-11-11T01:24:55;27.20;99.90
44047;DHT22;29713;-33.888;151.150;2022-11-11T01:27:23;26.90;99.90
44047;DHT22;29713;-33.888;151.150;2022-11-11T01:29:50;26.80;99.90
44047;DHT22;29713;-33.888;151.150;2022-11-11T01:32:17;27.00;99.90
44047;DHT22;29713;-33.888;151.150;2022-11-11T01:34:44;27.30;99.90
44047;DHT22;29713;-33.888;151.150;2022-11-11T01:37:12;27.50;99.90
44047;DHT22;29713;-33.888;151.150;2022-11-11T01:39:39;27.70;99.90
44047;DHT22;29713;-33.888;151.150;2022-11-11T01:42:06;27.40;99.90
44047;DHT22;29713;-33.888;151.150;2022-11-11T01:44:44;27.40;99.90
44047;DHT22;29713;-33.888;151.150;2022-11-11T01:47:12;27.70;99.90
44047;DHT22;29713;-33.888;151.150;2022-11-11T01:49:57;28.10;99.90
44047;DHT22;29713;-33.888;151.150;2022-11-11T01:52:33;28.40;99.90
44047;DHT22;29713;-33.888;151.150;2022-11-11T01:55:02;28.50;99.90
44047;DHT22;29713;-33.888;151.150;2022-11-11T01:57:52;28.70;99.90
44047;DHT22;29713;-33.888;151.150;2022-11-11T02:00:20;28.90;99.90
44047;DHT22;29713;-33.888;151.150;2022-11-11T02:02:52;28.80;99.90
44047;DHT22;29713;-33.888;151.150;2022-11-11T02:05:22;28.90;99.90
44047;DHT22;29713;-33.888;151.150;2022-11-11T02:08:20;28.70;99.90
44047;DHT22;29713;-33.888;151.150;2022-11-11T02:11:10;28.90;99.90
44047;DHT22;29713;-33.888;151.150;2022-11-11T02:13:39;28.80;99.90
44047;DHT22;29713;-33.888;151.150;2022-11-11T02:16:25;28.70;99.90
44047;DHT22;29713;-33.888;151.150;2022-11-11T02:18:53;28.00;99.90
44047;DHT22;29713;-33.888;151.150;2022-11-11T02:21:43;27.80;99.90
44047;DHT22;29713;-33.888;151.150;2022-11-11T02:24:15;27.60;99.90
44047;DHT22;29713;-33.888;151.150;2022-11-11T02:26:44;27.50;99.90
44047;DHT22;29713;-33.888;151.150;2022-11-11T02:29:14;27.40;99.90
44047;DHT22;29713;-33.888;151.150;2022-11-11T02:31:43;27.20;99.90
44047;DHT22;29713;-33.888;151.150;2022-11-11T02:34:10;26.80;99.90
44047;DHT22;29713;-33.888;151.150;2022-11-11T02:36:38;26.50;99.90
44047;DHT22;29713;-33.888;151.150;2022-11-11T02:39:06;26.50;99.90
44047;DHT22;29713;-33.888;151.150;2022-11-11T02:41:33;26.50;99.90
44047;DHT22;29713;-33.888;151.150;2022-11-11T02:44:18;26.40;99.90
44047;DHT22;29713;-33.888;151.150;2022-11-11T02:46:46;26.60;99.90
44047;DHT22;29713;-33.888;151.150;2022-11-11T02:49:13;26.80;99.90
44047;DHT22;29713;-33.888;151.150;2022-11-11T02:51:40;27.10;99.90
44047;DHT22;29713;-33.888;151.150;2022-11-11T02:54:08;27.30;99.90
44047;DHT22;29713;-33.888;151.150;2022-11-11T02:56:35;27.40;99.90
44047;DHT22;29713;-33.888;151.150;2022-11-11T02:59:20;27.40;99.90
44047;DHT22;29713;-33.888;151.150;2022-11-11T03:01:48;27.80;99.90
44047;DHT22;29713;-33.888;151.150;2022-11-11T03:04:15;28.10;99.90
44047;DHT22;29713;-33.888;151.150;2022-11-11T03:06:42;28.10;99.90
44047;DHT22;29713;-33.888;151.150;2022-11-11T03:09:09;28.00;99.90
44047;DHT22;29713;-33.888;151.150;2022-11-11T03:11:37;27.80;99.90
44047;DHT22;29713;-33.888;151.150;2022-11-11T03:14:04;27.80;99.90
44047;DHT22;29713;-33.888;151.150;2022-11-11T03:16:32;28.00;99.90
44047;DHT22;29713;-33.888;151.150;2022-11-11T03:19:18;28.70;99.90
44047;DHT22;29713;-33.888;151.150;2022-11-11T03:21:45;29.10;99.90
44047;DHT22;29713;-33.888;151.150;2022-11-11T03:24:12;29.30;99.90
44047;DHT22;29713;-33.888;151.150;2022-11-11T03:26:40;29.50;99.90
44047;DHT22;29713;-33.888;151.150;2022-11-11T03:29:07;29.80;99.90
44047;DHT22;29713;-33.888;151.150;2022-11-11T03:31:34;30.10;99.90
44047;DHT22;29713;-33.888;151.150;2022-11-11T03:34:03;30.10;99.90
44047;DHT22;29713;-33.888;151.150;2022-11-11T03:36:45;30.00;99.90
44047;DHT22;29713;-33.888;151.150;2022-11-11T03:39:31;29.80;99.90
44047;DHT22;29713;-33.888;151.150;2022-11-11T03:41:58;29.60;99.90
44047;DHT22;29713;-33.888;151.150;2022-11-11T03:44:25;29.50;99.90
44047;DHT22;29713;-33.888;151.150;2022-11-11T03:46:55;29.60;99.90
44047;DHT22;29713;-33.888;151.150;2022-11-11T03:49:22;29.50;99.90
44047;DHT22;29713;-33.888;151.150;2022-11-11T03:51:49;29.70;99.90
44047;DHT22;29713;-33.888;151.150;2022-11-11T03:54:16;29.50;99.90
44047;DHT22;29713;-33.888;151.150;2022-11-11T03:56:44;29.10;99.90
44047;DHT22;29713;-33.888;151.150;2022-11-11T03:59:11;28.70;99.90
44047;DHT22;29713;-33.888;151.150;2022-11-11T04:01:38;28.60;99.90
44047;DHT22;29713;-33.888;151.150;2022-11-11T04:04:24;28.50;99.90
44047;DHT22;29713;-33.888;151.150;2022-11-11T04:07:10;28.70;99.90
44047;DHT22;29713;-33.888;151.150;2022-11-11T04:09:55;29.10;99.90
44047;DHT22;29713;-33.888;151.150;2022-11-11T04:12:41;29.40;99.90
44047;DHT22;29713;-33.888;151.150;2022-11-11T04:15:26;29.60;99.90
44047;DHT22;29713;-33.888;151.150;2022-11-11T04:18:28;30.00;99.90
44047;DHT22;29713;-33.888;151.150;2022-11-11T04:21:13;30.40;99.90
44047;DHT22;29713;-33.888;151.150;2022-11-11T04:23:59;30.10;99.90
44047;DHT22;29713;-33.888;151.150;2022-11-11T04:26:26;29.50;99.90
44047;DHT22;29713;-33.888;151.150;2022-11-11T04:28:54;28.90;99.90
44047;DHT22;29713;-33.888;151.150;2022-11-11T04:31:39;28.60;99.90
44047;DHT22;29713;-33.888;151.150;2022-11-11T04:34:26;28.00;99.90
44047;DHT22;29713;-33.888;151.150;2022-11-11T04:36:53;27.60;99.90
44047;DHT22;29713;-33.888;151.150;2022-11-11T04:39:21;27.30;99.90
44047;DHT22;29713;-33.888;151.150;2022-11-11T04:42:06;27.10;99.90
44047;DHT22;29713;-33.888;151.150;2022-11-11T04:44:33;26.80;99.90
44047;DHT22;29713;-33.888;151.150;2022-11-11T04:47:18;26.60;99.90
44047;DHT22;29713;-33.888;151.150;2022-11-11T04:49:46;26.20;99.90
44047;DHT22;29713;-33.888;151.150;2022-11-11T04:52:13;25.90;99.90
44047;DHT22;29713;-33.888;151.150;2022-11-11T04:54:57;25.70;99.90
44047;DHT22;29713;-33.888;151.150;2022-11-11T04:57:44;25.50;99.90
44047;DHT22;29713;-33.888;151.150;2022-11-11T05:00:14;25.20;99.90
44047;DHT22;29713;-33.888;151.150;2022-11-11T05:02:42;25.00;99.90
44047;DHT22;29713;-33.888;151.150;2022-11-11T05:05:28;24.90;99.90
44047;DHT22;29713;-33.888;151.150;2022-11-11T05:08:16;24.80;99.90
44047;DHT22;29713;-33.888;151.150;2022-11-11T05:11:01;24.80;99.90
44047;DHT22;29713;-33.888;151.150;2022-11-11T05:13:29;24.80;99.90
44047;DHT22;29713;-33.888;151.150;2022-11-11T05:16:20;24.80;99.90
44047;DHT22;29713;-33.888;151.150;2022-11-11T05:19:10;24.80;99.90
44047;DHT22;29713;-33.888;151.150;2022-11-11T05:22:00;24.80;99.90
44047;DHT22;29713;-33.888;151.150;2022-11-11T05:24:28;24.80;99.90
44047;DHT22;29713;-33.888;151.150;2022-11-11T05:27:14;24.60;99.90
44047;DHT22;29713;-33.888;151.150;2022-11-11T05:29:41;24.50;99.90
44047;DHT22;29713;-33.888;151.150;2022-11-11T05:32:08;24.50;99.90
44047;DHT22;29713;-33.888;151.150;2022-11-11T05:34:36;24.40;99.90
44047;DHT22;29713;-33.888;151.150;2022-11-11T05:37:03;24.40;99.90
44047;DHT22;29713;-33.888;151.150;2022-11-11T05:39:30;24.40;99.90
44047;DHT22;29713;-33.888;151.150;2022-11-11T05:41:58;24.40;99.90
44047;DHT22;29713;-33.888;151.150;2022-11-11T05:44:25;24.40;99.90
44047;DHT22;29713;-33.888;151.150;2022-11-11T05:46:53;24.40;99.90
44047;DHT22;29713;-33.888;151.150;2022-11-11T05:49:20;24.20;99.90
44047;DHT22;29713;-33.888;151.150;2022-11-11T05:51:48;24.10;99.90
44047;DHT22;29713;-33.888;151.150;2022-11-11T05:54:16;24.10;99.90
44047;DHT22;29713;-33.888;151.150;2022-11-11T05:56:43;24.10;99.90
44047;DHT22;29713;-33.888;151.150;2022-11-11T05:59:10;24.10;99.90
44047;DHT22;29713;-33.888;151.150;2022-11-11T06:01:38;24.10;99.90
44047;DHT22;29713;-33.888;151.150;2022-11-11T06:04:06;24.10;99.90
44047;DHT22;29713;-33.888;151.150;2022-11-11T06:06:34;24.00;99.90
44047;DHT22;29713;-33.888;151.150;2022-11-11T06:09:03;24.00;99.90
44047;DHT22;29713;-33.888;151.150;2022-11-11T06:11:31;23.90;99.90
44047;DHT22;29713;-33.888;151.150;2022-11-11T06:13:59;23.80;99.90
44047;DHT22;29713;-33.888;151.150;2022-11-11T06:16:26;23.80;99.90
44047;DHT22;29713;-33.888;151.150;2022-11-11T06:18:54;23.70;99.90
44047;DHT22;29713;-33.888;151.150;2022-11-11T06:21:21;23.70;99.90
44047;DHT22;29713;-33.888;151.150;2022-11-11T06:23:48;23.80;99.90
44047;DHT22;29713;-33.888;151.150;2022-11-11T06:26:16;23.80;99.90
44047;DHT22;29713;-33.888;151.150;2022-11-11T06:31:22;23.90;99.90
44047;DHT22;29713;-33.888;151.150;2022-11-11T06:33:50;23.80;99.90
44047;DHT22;29713;-33.888;151.150;2022-11-11T06:36:19;23.80;99.90
44047;DHT22;29713;-33.888;151.150;2022-11-11T06:38:47;23.80;99.90
44047;DHT22;29713;-33.888;151.150;2022-11-11T06:41:14;23.70;99.90
44047;DHT22;29713;-33.888;151.150;2022-11-11T06:43:42;23.70;99.90
44047;DHT22;29713;-33.888;151.150;2022-11-11T06:46:22;23.80;99.90
44047;DHT22;29713;-33.888;151.150;2022-11-11T06:48:50;23.80;99.90
44047;DHT22;29713;-33.888;151.150;2022-11-11T06:51:17;23.70;99.90
44047;DHT22;29713;-33.888;151.150;2022-11-11T06:53:45;23.50;99.90
44047;DHT22;29713;-33.888;151.150;2022-11-11T06:56:13;23.50;99.90
44047;DHT22;29713;-33.888;151.150;2022-11-11T06:58:40;23.50;99.90
44047;DHT22;29713;-33.888;151.150;2022-11-11T07:01:08;23.50;99.90
44047;DHT22;29713;-33.888;151.150;2022-11-11T07:03:36;23.50;99.90
44047;DHT22;29713;-33.888;151.150;2022-11-11T07:06:04;23.50;99.90
44047;DHT22;29713;-33.888;151.150;2022-11-11T07:08:32;23.60;99.90
44047;DHT22;29713;-33.888;151.150;2022-11-11T07:11:00;23.70;99.90
44047;DHT22;29713;-33.888;151.150;2022-11-11T07:13:28;23.70;99.90
44047;DHT22;29713;-33.888;151.150;2022-11-11T07:15:55;23.80;99.90
44047;DHT22;29713;-33.888;151.150;2022-11-11T07:18:22;23.80;99.90
44047;DHT22;29713;-33.888;151.150;2022-11-11T07:20:50;23.80;99.90
44047;DHT22;29713;-33.888;151.150;2022-11-11T07:23:17;23.80;99.90
44047;DHT22;29713;-33.888;151.150;2022-11-11T07:25:44;23.70;99.90
44047;DHT22;29713;-33.888;151.150;2022-11-11T07:28:12;23.60;99.90
44047;DHT22;29713;-33.888;151.150;2022-11-11T07:30:39;23.50;99.90
44047;DHT22;29713;-33.888;151.150;2022-11-11T07:33:08;23.50;99.90
44047;DHT22;29713;-33.888;151.150;2022-11-11T07:35:35;23.50;99.90
44047;DHT22;29713;-33.888;151.150;2022-11-11T07:38:02;23.50;99.90
44047;DHT22;29713;-33.888;151.150;2022-11-11T07:40:30;23.60;99.90
44047;DHT22;29713;-33.888;151.150;2022-11-11T07:42:57;23.60;99.90
44047;DHT22;29713;-33.888;151.150;2022-11-11T07:45:24;23.50;99.90
44047;DHT22;29713;-33.888;151.150;2022-11-11T07:47:52;23.50;99.90
44047;DHT22;29713;-33.888;151.150;2022-11-11T07:50:19;23.40;99.90
44047;DHT22;29713;-33.888;151.150;2022-11-11T07:52:49;23.30;99.90
44047;DHT22;29713;-33.888;151.150;2022-11-11T07:55:17;23.30;99.90
44047;DHT22;29713;-33.888;151.150;2022-11-11T07:57:44;23.40;99.90
44047;DHT22;29713;-33.888;151.150;2022-11-11T08:00:12;23.40;99.90
44047;DHT22;29713;-33.888;151.150;2022-11-11T08:02:40;23.40;99.90
44047;DHT22;29713;-33.888;151.150;2022-11-11T08:05:12;23.30;99.90
44047;DHT22;29713;-33.888;151.150;2022-11-11T08:07:39;23.30;99.90
44047;DHT22;29713;-33.888;151.150;2022-11-11T08:10:09;23.30;99.90
44047;DHT22;29713;-33.888;151.150;2022-11-11T08:12:37;23.30;99.90
44047;DHT22;29713;-33.888;151.150;2022-11-11T08:15:22;23.30;99.90
44047;DHT22;29713;-33.888;151.150;2022-11-11T08:17:49;23.30;99.90
44047;DHT22;29713;-33.888;151.150;2022-11-11T08:20:17;23.30;99.90
44047;DHT22;29713;-33.888;151.150;2022-11-11T08:22:44;23.20;99.90
44047;DHT22;29713;-33.888;151.150;2022-11-11T08:25:12;23.20;99.90
44047;DHT22;29713;-33.888;151.150;2022-11-11T08:27:40;23.10;99.90
44047;DHT22;29713;-33.888;151.150;2022-11-11T08:30:08;23.20;99.90
44047;DHT22;29713;-33.888;151.150;2022-11-11T08:32:36;23.10;99.90
44047;DHT22;29713;-33.888;151.150;2022-11-11T08:35:03;23.10;99.90
44047;DHT22;29713;-33.888;151.150;2022-11-11T08:37:31;23.10;99.90
44047;DHT22;29713;-33.888;151.150;2022-11-11T08:40:01;23.00;99.90
44047;DHT22;29713;-33.888;151.150;2022-11-11T08:42:29;23.00;99.90
44047;DHT22;29713;-33.888;151.150;2022-11-11T08:47:31;22.90;99.90
44047;DHT22;29713;-33.888;151.150;2022-11-11T08:49:59;22.90;99.90
44047;DHT22;29713;-33.888;151.150;2022-11-11T08:52:27;22.90;99.90
44047;DHT22;29713;-33.888;151.150;2022-11-11T08:54:54;22.90;99.90
44047;DHT22;29713;-33.888;151.150;2022-11-11T08:57:21;22.90;99.90
44047;DHT22;29713;-33.888;151.150;2022-11-11T08:59:48;22.80;99.90
44047;DHT22;29713;-33.888;151.150;2022-11-11T09:02:16;22.80;99.90
44047;DHT22;29713;-33.888;151.150;2022-11-11T09:04:43;22.80;99.90
44047;DHT22;29713;-33.888;151.150;2022-11-11T09:07:11;22.80;99.90
44047;DHT22;29713;-33.888;151.150;2022-11-11T09:09:38;22.80;99.90
44047;DHT22;29713;-33.888;151.150;2022-11-11T09:12:06;22.80;99.90
44047;DHT22;29713;-33.888;151.150;2022-11-11T09:14:33;22.70;99.90
44047;DHT22;29713;-33.888;151.150;2022-11-11T09:17:00;22.70;99.90
44047;DHT22;29713;-33.888;151.150;2022-11-11T09:19:28;22.70;99.90
44047;DHT22;29713;-33.888;151.150;2022-11-11T09:21:55;22.70;99.90
44047;DHT22;29713;-33.888;151.150;2022-11-11T09:24:22;22.70;99.90
44047;DHT22;29713;-33.888;151.150;2022-11-11T09:26:50;22.70;99.90
44047;DHT22;29713;-33.888;151.150;2022-11-11T09:29:18;22.70;99.90
44047;DHT22;29713;-33.888;151.150;2022-11-11T09:31:46;22.60;99.90
44047;DHT22;29713;-33.888;151.150;2022-11-11T09:34:14;22.60;99.90
44047;DHT22;29713;-33.888;151.150;2022-11-11T09:36:41;22.50;99.90
44047;DHT22;29713;-33.888;151.150;2022-11-11T09:39:09;22.50;99.90
44047;DHT22;29713;-33.888;151.150;2022-11-11T09:50:01;22.30;99.90
44047;DHT22;29713;-33.888;151.150;2022-11-11T09:55:35;22.20;99.90
44047;DHT22;29713;-33.888;151.150;2022-11-11T09:58:12;22.10;99.90
44047;DHT22;29713;-33.888;151.150;2022-11-11T10:00:44;22.10;99.90
44047;DHT22;29713;-33.888;151.150;2022-11-11T10:03:18;22.00;99.90
44047;DHT22;29713;-33.888;151.150;2022-11-11T10:06:13;22.00;99.90
44047;DHT22;29713;-33.888;151.150;2022-11-11T10:08:59;22.00;99.90
44047;DHT22;29713;-33.888;151.150;2022-11-11T10:14:21;21.90;99.90
44047;DHT22;29713;-33.888;151.150;2022-11-11T10:17:41;21.90;99.90
44047;DHT22;29713;-33.888;151.150;2022-11-11T10:22:41;21.80;99.90
44047;DHT22;29713;-33.888;151.150;2022-11-11T10:27:42;21.80;99.90
44047;DHT22;29713;-33.888;151.150;2022-11-11T10:33:10;21.80;99.90
44047;DHT22;29713;-33.888;151.150;2022-11-11T10:35:33;21.80;99.90
44047;DHT22;29713;-33.888;151.150;2022-11-11T10:40:49;21.80;99.90
44047;DHT22;29713;-33.888;151.150;2022-11-11T10:43:26;21.70;99.90
44047;DHT22;29713;-33.888;151.150;2022-11-11T10:48:29;21.70;99.90
44047;DHT22;29713;-33.888;151.150;2022-11-11T10:50:59;21.70;99.90
44047;DHT22;29713;-33.888;151.150;2022-11-11T10:53:44;21.60;99.90
44047;DHT22;29713;-33.888;151.150;2022-11-11T11:01:59;21.50;99.90
44047;DHT22;29713;-33.888;151.150;2022-11-11T11:04:45;21.50;99.90
44047;DHT22;29713;-33.888;151.150;2022-11-11T11:07:19;21.50;99.90
44047;DHT22;29713;-33.888;151.150;2022-11-11T11:10:15;21.50;99.90
44047;DHT22;29713;-33.888;151.150;2022-11-11T11:15:27;21.50;99.90
44047;DHT22;29713;-33.888;151.150;2022-11-11T11:18:09;21.50;99.90
44047;DHT22;29713;-33.888;151.150;2022-11-11T11:20:38;21.50;99.90
44047;DHT22;29713;-33.888;151.150;2022-11-11T11:23:05;21.50;99.90
44047;DHT22;29713;-33.888;151.150;2022-11-11T11:25:32;21.50;99.90
44047;DHT22;29713;-33.888;151.150;2022-11-11T11:28:10;21.40;99.90
44047;DHT22;29713;-33.888;151.150;2022-11-11T11:30:38;21.40;99.90
44047;DHT22;29713;-33.888;151.150;2022-11-11T11:33:09;21.40;99.90
44047;DHT22;29713;-33.888;151.150;2022-11-11T11:35:40;21.40;99.90
44047;DHT22;29713;-33.888;151.150;2022-11-11T11:38:10;21.40;99.90
44047;DHT22;29713;-33.888;151.150;2022-11-11T11:40:51;21.30;99.90
44047;DHT22;29713;-33.888;151.150;2022-11-11T11:43:34;21.30;99.90
44047;DHT22;29713;-33.888;151.150;2022-11-11T11:46:49;21.20;99.90
44047;DHT22;29713;-33.888;151.150;2022-11-11T11:49:07;21.30;99.90
44047;DHT22;29713;-33.888;151.150;2022-11-11T11:56:55;21.10;99.90
44047;DHT22;29713;-33.888;151.150;2022-11-11T11:59:50;21.00;99.90
44047;DHT22;29713;-33.888;151.150;2022-11-11T12:08:05;21.00;99.90
44047;DHT22;29713;-33.888;151.150;2022-11-11T12:30:18;20.90;99.90
44047;DHT22;29713;-33.888;151.150;2022-11-11T12:38:40;20.80;99.90
44047;DHT22;29713;-33.888;151.150;2022-11-11T12:41:24;20.80;99.90
44047;DHT22;29713;-33.888;151.150;2022-11-11T12:44:03;20.70;99.90
44047;DHT22;29713;-33.888;151.150;2022-11-11T13:01:02;20.40;99.90
44047;DHT22;29713;-33.888;151.150;2022-11-11T13:03:47;20.50;99.90
44047;DHT22;29713;-33.888;151.150;2022-11-11T13:06:42;20.50;99.90
44047;DHT22;29713;-33.888;151.150;2022-11-11T13:09:26;20.50;99.90
44047;DHT22;29713;-33.888;151.150;2022-11-11T13:17:20;20.40;99.90
44047;DHT22;29713;-33.888;151.150;2022-11-11T13:22:26;20.30;99.90
44047;DHT22;29713;-33.888;151.150;2022-11-11T13:24:55;20.30;99.90
44047;DHT22;29713;-33.888;151.150;2022-11-11T13:27:43;20.30;99.90
44047;DHT22;29713;-33.888;151.150;2022-11-11T13:33:12;20.30;99.90
44047;DHT22;29713;-33.888;151.150;2022-11-11T13:35:53;20.30;99.90
44047;DHT22;29713;-33.888;151.150;2022-11-11T13:38:36;20.30;99.90
44047;DHT22;29713;-33.888;151.150;2022-11-11T13:41:06;20.30;99.90
44047;DHT22;29713;-33.888;151.150;2022-11-11T13:46:30;20.20;99.90
44047;DHT22;29713;-33.888;151.150;2022-11-11T13:48:59;20.20;99.90
44047;DHT22;29713;-33.888;151.150;2022-11-11T13:51:41;20.10;99.90
44047;DHT22;29713;-33.888;151.150;2022-11-11T13:59:48;20.10;99.90
44047;DHT22;29713;-33.888;151.150;2022-11-11T14:07:49;20.10;99.90
44047;DHT22;29713;-33.888;151.150;2022-11-11T14:12:56;20.10;99.90
44047;DHT22;29713;-33.888;151.150;2022-11-11T14:20:47;20.10;99.90
44047;DHT22;29713;-33.888;151.150;2022-11-11T14:25:47;20.10;99.90
44047;DHT22;29713;-33.888;151.150;2022-11-11T14:30:48;19.90;99.90
44047;DHT22;29713;-33.888;151.150;2022-11-11T14:33:22;19.90;99.90
44047;DHT22;29713;-33.888;151.150;2022-11-11T14:36:53;19.80;99.90
44047;DHT22;29713;-33.888;151.150;2022-11-11T14:41:51;19.70;99.90
44047;DHT22;29713;-33.888;151.150;2022-11-11T14:52:55;19.60;99.90
44047;DHT22;29713;-33.888;151.150;2022-11-11T14:55:31;19.60;99.90
44047;DHT22;29713;-33.888;151.150;2022-11-11T14:58:10;19.50;99.90
44047;DHT22;29713;-33.888;151.150;2022-11-11T15:06:05;19.50;99.90
44047;DHT22;29713;-33.888;151.150;2022-11-11T15:14:22;19.40;99.90
44047;DHT22;29713;-33.888;151.150;2022-11-11T15:25:57;19.30;99.90
44047;DHT22;29713;-33.888;151.150;2022-11-11T15:28:45;19.30;99.90
44047;DHT22;29713;-33.888;151.150;2022-11-11T15:31:53;19.30;99.90
44047;DHT22;29713;-33.888;151.150;2022-11-11T15:37:05;19.30;99.90
44047;DHT22;29713;-33.888;151.150;2022-11-11T15:42:21;19.30;99.90
44047;DHT22;29713;-33.888;151.150;2022-11-11T15:44:50;19.20;99.90
44047;DHT22;29713;-33.888;151.150;2022-11-11T15:47:20;19.20;99.90
44047;DHT22;29713;-33.888;151.150;2022-11-11T15:49:51;19.20;99.90
44047;DHT22;29713;-33.888;151.150;2022-11-11T15:52:32;19.20;99.90
44047;DHT22;29713;-33.888;151.150;2022-11-11T15:55:08;19.10;99.90
44047;DHT22;29713;-33.888;151.150;2022-11-11T15:57:36;19.20;99.90
44047;DHT22;29713;-33.888;151.150;2022-11-11T16:02:50;19.20;99.90
44047;DHT22;29713;-33.888;151.150;2022-11-11T16:05:24;19.20;99.90
44047;DHT22;29713;-33.888;151.150;2022-11-11T16:07:54;19.20;99.90
44047;DHT22;29713;-33.888;151.150;2022-11-11T16:10:34;19.20;99.90
44047;DHT22;29713;-33.888;151.150;2022-11-11T16:15:42;19.10;99.90
44047;DHT22;29713;-33.888;151.150;2022-11-11T16:18:17;19.00;99.90
44047;DHT22;29713;-33.888;151.150;2022-11-11T16:21:07;19.00;99.90
44047;DHT22;29713;-33.888;151.150;2022-11-11T16:23:38;18.90;99.90
44047;DHT22;29713;-33.888;151.150;2022-11-11T16:26:07;18.90;99.90
44047;DHT22;29713;-33.888;151.150;2022-11-11T16:28:47;18.90;99.90
44047;DHT22;29713;-33.888;151.150;2022-11-11T16:33:49;18.90;99.90
44047;DHT22;29713;-33.888;151.150;2022-11-11T16:36:16;18.90;99.90
44047;DHT22;29713;-33.888;151.150;2022-11-11T16:38:43;18.90;99.90
44047;DHT22;29713;-33.888;151.150;2022-11-11T16:41:43;18.90;99.90
44047;DHT22;29713;-33.888;151.150;2022-11-11T16:47:04;18.80;99.90
44047;DHT22;29713;-33.888;151.150;2022-11-11T16:49:39;18.80;99.90
44047;DHT22;29713;-33.888;151.150;2022-11-11T16:52:21;18.80;99.90
44047;DHT22;29713;-33.888;151.150;2022-11-11T16:54:54;18.70;99.90
44047;DHT22;29713;-33.888;151.150;2022-11-11T16:57:26;18.70;99.90
44047;DHT22;29713;-33.888;151.150;2022-11-11T17:00:00;18.70;99.90
44047;DHT22;29713;-33.888;151.150;2022-11-11T17:02:28;18.60;99.90
44047;DHT22;29713;-33.888;151.150;2022-11-11T17:04:57;18.60;99.90
44047;DHT22;29713;-33.888;151.150;2022-11-11T17:07:38;18.60;99.90
44047;DHT22;29713;-33.888;151.150;2022-11-11T17:10:20;18.60;99.90
44047;DHT22;29713;-33.888;151.150;2022-11-11T17:12:51;18.60;99.90
44047;DHT22;29713;-33.888;151.150;2022-11-11T17:15:20;18.60;99.90
44047;DHT22;29713;-33.888;151.150;2022-11-11T17:17:48;18.60;99.90
44047;DHT22;29713;-33.888;151.150;2022-11-11T17:20:20;18.60;99.90
44047;DHT22;29713;-33.888;151.150;2022-11-11T17:22:53;18.60;99.90
44047;DHT22;29713;-33.888;151.150;2022-11-11T17:25:20;18.60;99.90
44047;DHT22;29713;-33.888;151.150;2022-11-11T17:27:48;18.60;99.90
44047;DHT22;29713;-33.888;151.150;2022-11-11T17:30:15;18.60;99.90
44047;DHT22;29713;-33.888;151.150;2022-11-11T17:32:45;18.60;99.90
44047;DHT22;29713;-33.888;151.150;2022-11-11T17:35:13;18.60;99.90
44047;DHT22;29713;-33.888;151.150;2022-11-11T17:37:40;18.60;99.90
44047;DHT22;29713;-33.888;151.150;2022-11-11T17:40:09;18.60;99.90
44047;DHT22;29713;-33.888;151.150;2022-11-11T17:42:37;18.60;99.90
44047;DHT22;29713;-33.888;151.150;2022-11-11T17:45:05;18.60;99.90
44047;DHT22;29713;-33.888;151.150;2022-11-11T17:47:32;18.50;99.90
44047;DHT22;29713;-33.888;151.150;2022-11-11T17:50:00;18.50;99.90
44047;DHT22;29713;-33.888;151.150;2022-11-11T17:52:27;18.50;99.90
44047;DHT22;29713;-33.888;151.150;2022-11-11T17:54:54;18.50;99.90
44047;DHT22;29713;-33.888;151.150;2022-11-11T17:57:21;18.50;99.90
44047;DHT22;29713;-33.888;151.150;2022-11-11T17:59:49;18.50;99.90
44047;DHT22;29713;-33.888;151.150;2022-11-11T18:02:16;18.40;99.90
44047;DHT22;29713;-33.888;151.150;2022-11-11T18:04:45;18.40;99.90
44047;DHT22;29713;-33.888;151.150;2022-11-11T18:07:12;18.30;99.90
44047;DHT22;29713;-33.888;151.150;2022-11-11T18:09:40;18.30;99.90
44047;DHT22;29713;-33.888;151.150;2022-11-11T18:12:07;18.30;99.90
44047;DHT22;29713;-33.888;151.150;2022-11-11T18:14:34;18.30;99.90
44047;DHT22;29713;-33.888;151.150;2022-11-11T18:17:02;18.30;99.90